sensor_id;sensor_type;location;lat;lon;timestamp;pressure;altitude;pressure_sealevel;temperature;humidity
26436;BME280;15351;52.408;16.826;2023-05-11T00:02:52;100943.13;;;14.99;45.11
26436;BME280;15351;52.408;16.826;2023-05-11T00:05:28;100941.30;;;14.97;45.41
26436;BME280;15351;52.408;16.826;2023-05-11T00:07:55;100941.66;;;14.96;45.15
26436;BME280;15351;52.408;16.826;2023-05-11T00:13:35;100939.02;;;14.87;45.05
26436;BME280;15351;52.408;16.826;2023-05-11T00:16:02;100937.17;;;14.81;44.98
26436;BME280;15351;52.408;16.826;2023-05-11T00:19:16;100936.64;;;14.79;45.44
26436;BME280;15351;52.408;16.826;2023-05-11T00:21:46;100935.20;;;14.79;45.17
26436;BME280;15351;52.408;16.826;2023-05-11T00:24:23;100937.89;;;14.78;45.06
26436;BME280;15351;52.408;16.826;2023-05-11T00:26:50;100934.49;;;14.75;44.88
26436;BME280;15351;52.408;16.826;2023-05-11T00:29:44;100935.90;;;14.71;44.79
26436;BME280;15351;52.408;16.826;2023-05-11T00:32:11;100934.11;;;14.66;44.92
26436;BME280;15351;52.408;16.826;2023-05-11T00:34:37;100936.23;;;14.64;44.85
26436;BME280;15351;52.408;16.826;2023-05-11T00:37:15;100935.57;;;14.62;45.12
26436;BME280;15351;52.408;16.826;2023-05-11T00:40:23;100937.36;;;14.60;45.01
26436;BME280;15351;52.408;16.826;2023-05-11T00:43:03;100930.24;;;14.57;44.98
26436;BME280;15351;52.408;16.826;2023-05-11T00:45:41;100937.98;;;14.61;45.13
26436;BME280;15351;52.408;16.826;2023-05-11T00:48:40;100936.45;;;14.62;44.95
26436;BME280;15351;52.408;16.826;2023-05-11T00:52:12;100937.48;;;14.61;44.79
26436;BME280;15351;52.408;16.826;2023-05-11T00:55:46;100935.63;;;14.56;44.61
26436;BME280;15351;52.408;16.826;2023-05-11T00:58:14;100937.21;;;14.55;44.41
26436;BME280;15351;52.408;16.826;2023-05-11T01:00:42;100925.01;;;14.48;44.59
26436;BME280;15351;52.408;16.826;2023-05-11T01:03:13;100934.39;;;14.50;44.42
26436;BME280;15351;52.408;16.826;2023-05-11T01:10:05;100937.47;;;14.45;44.76
26436;BME280;15351;52.408;16.826;2023-05-11T01:16:42;100936.59;;;14.37;44.19
26436;BME280;15351;52.408;16.826;2023-05-11T01:34:31;100935.58;;;14.31;44.27
26436;BME280;15351;52.408;16.826;2023-05-11T01:41:04;100933.19;;;14.27;44.27
26436;BME280;15351;52.408;16.826;2023-05-11T01:44:03;100931.67;;;14.29;44.40
26436;BME280;15351;52.408;16.826;2023-05-11T01:50:30;100935.92;;;14.25;44.43
26436;BME280;15351;52.408;16.826;2023-05-11T01:53:02;100938.92;;;14.23;44.37
26436;BME280;15351;52.408;16.826;2023-05-11T01:55:50;100937.92;;;14.18;44.27
26436;BME280;15351;52.408;16.826;2023-05-11T01:58:18;100943.07;;;14.16;44.19
26436;BME280;15351;52.408;16.826;2023-05-11T02:00:48;100942.16;;;14.13;44.25
26436;BME280;15351;52.408;16.826;2023-05-11T02:03:52;100943.00;;;14.13;44.45
26436;BME280;15351;52.408;16.826;2023-05-11T02:06:30;100942.36;;;14.13;44.58
26436;BME280;15351;52.408;16.826;2023-05-11T02:10:02;100942.31;;;14.12;44.35
26436;BME280;15351;52.408;16.826;2023-05-11T02:12:32;100942.07;;;14.08;44.24
26436;BME280;15351;52.408;16.826;2023-05-11T02:15:55;100944.60;;;14.05;44.37
26436;BME280;15351;52.408;16.826;2023-05-11T02:21:31;100946.23;;;14.03;44.45
26436;BME280;15351;52.408;16.826;2023-05-11T02:24:03;100949.53;;;14.03;44.58
26436;BME280;15351;52.408;16.826;2023-05-11T02:26:31;100951.46;;;14.01;44.48
26436;BME280;15351;52.408;16.826;2023-05-11T02:30:09;100954.33;;;13.97;44.48
26436;BME280;15351;52.408;16.826;2023-05-11T02:32:57;100963.52;;;13.93;44.44
26436;BME280;15351;52.408;16.826;2023-05-11T02:35:56;100957.46;;;13.86;44.51
26436;BME280;15351;52.408;16.826;2023-05-11T02:38:32;100964.75;;;13.89;44.79
26436;BME280;15351;52.408;16.826;2023-05-11T02:44:59;100967.27;;;13.80;44.97
26436;BME280;15351;52.408;16.826;2023-05-11T02:47:50;100969.48;;;13.76;44.89
26436;BME280;15351;52.408;16.826;2023-05-11T02:50:24;100973.88;;;13.74;45.11
26436;BME280;15351;52.408;16.826;2023-05-11T02:53:35;100973.36;;;13.76;45.17
26436;BME280;15351;52.408;16.826;2023-05-11T02:56:32;100974.23;;;13.76;45.17
26436;BME280;15351;52.408;16.826;2023-05-11T02:59:18;100972.66;;;13.76;44.92
26436;BME280;15351;52.408;16.826;2023-05-11T03:02:01;100974.90;;;13.74;45.03
26436;BME280;15351;52.408;16.826;2023-05-11T03:04:27;100978.45;;;13.68;45.09
26436;BME280;15351;52.408;16.826;2023-05-11T03:06:54;100983.20;;;13.65;45.06
26436;BME280;15351;52.408;16.826;2023-05-11T03:09:21;100979.31;;;13.61;45.28
26436;BME280;15351;52.408;16.826;2023-05-11T03:11:57;100980.48;;;13.61;45.21
26436;BME280;15351;52.408;16.826;2023-05-11T03:14:24;100978.71;;;13.60;45.25
26436;BME280;15351;52.408;16.826;2023-05-11T03:16:54;100982.35;;;13.59;45.26
26436;BME280;15351;52.408;16.826;2023-05-11T03:19:27;100976.50;;;13.53;45.06
26436;BME280;15351;52.408;16.826;2023-05-11T03:23:04;100978.35;;;13.51;45.34
26436;BME280;15351;52.408;16.826;2023-05-11T03:25:14;100980.72;;;13.48;45.11
26436;BME280;15351;52.408;16.826;2023-05-11T03:28:05;100981.02;;;13.45;45.19
26436;BME280;15351;52.408;16.826;2023-05-11T03:30:39;100978.98;;;13.42;45.28
26436;BME280;15351;52.408;16.826;2023-05-11T03:33:25;100977.77;;;13.42;45.40
26436;BME280;15351;52.408;16.826;2023-05-11T03:36:11;100979.52;;;13.39;45.51
26436;BME280;15351;52.408;16.826;2023-05-11T03:39:22;100982.74;;;13.38;45.55
26436;BME280;15351;52.408;16.826;2023-05-11T03:41:57;100982.20;;;13.38;45.52
26436;BME280;15351;52.408;16.826;2023-05-11T03:44:45;100984.50;;;13.35;45.44
26436;BME280;15351;52.408;16.826;2023-05-11T03:47:32;100984.86;;;13.32;45.63
26436;BME280;15351;52.408;16.826;2023-05-11T03:50:44;100986.13;;;13.31;45.54
26436;BME280;15351;52.408;16.826;2023-05-11T03:53:23;100988.46;;;13.31;45.55
26436;BME280;15351;52.408;16.826;2023-05-11T03:56:43;100988.52;;;13.29;45.76
26436;BME280;15351;52.408;16.826;2023-05-11T03:59:42;100990.62;;;13.31;45.71
26436;BME280;15351;52.408;16.826;2023-05-11T04:02:16;100990.82;;;13.32;45.87
26436;BME280;15351;52.408;16.826;2023-05-11T04:05:29;100991.88;;;13.33;46.01
26436;BME280;15351;52.408;16.826;2023-05-11T04:08:15;100990.21;;;13.33;45.90
26436;BME280;15351;52.408;16.826;2023-05-11T04:11:13;100987.25;;;13.35;46.06
26436;BME280;15351;52.408;16.826;2023-05-11T04:14:00;100989.55;;;13.43;46.18
26436;BME280;15351;52.408;16.826;2023-05-11T04:16:44;100988.70;;;13.44;46.14
26436;BME280;15351;52.408;16.826;2023-05-11T04:19:13;100987.86;;;13.49;45.98
26436;BME280;15351;52.408;16.826;2023-05-11T04:21:57;100990.19;;;13.51;45.73
26436;BME280;15351;52.408;16.826;2023-05-11T04:24:27;100988.80;;;13.53;45.73
26436;BME280;15351;52.408;16.826;2023-05-11T04:26:57;100992.33;;;13.57;45.49
26436;BME280;15351;52.408;16.826;2023-05-11T04:29:24;100987.05;;;13.58;45.62
26436;BME280;15351;52.408;16.826;2023-05-11T04:35:18;100992.14;;;13.62;45.47
26436;BME280;15351;52.408;16.826;2023-05-11T04:40:28;100991.10;;;13.68;45.71
26436;BME280;15351;52.408;16.826;2023-05-11T04:46:30;100992.77;;;13.77;45.71
26436;BME280;15351;52.408;16.826;2023-05-11T04:49:06;100991.69;;;13.77;45.61
26436;BME280;15351;52.408;16.826;2023-05-11T04:52:04;100992.79;;;13.78;45.86
26436;BME280;15351;52.408;16.826;2023-05-11T04:54:53;100997.54;;;13.81;46.10
26436;BME280;15351;52.408;16.826;2023-05-11T04:57:39;100999.74;;;13.83;45.96
26436;BME280;15351;52.408;16.826;2023-05-11T05:00:50;101001.41;;;13.83;45.91
26436;BME280;15351;52.408;16.826;2023-05-11T05:03:20;101002.23;;;13.87;45.91
26436;BME280;15351;52.408;16.826;2023-05-11T05:06:11;101000.54;;;13.89;45.89
26436;BME280;15351;52.408;16.826;2023-05-11T05:09:10;101000.83;;;13.91;46.07
26436;BME280;15351;52.408;16.826;2023-05-11T05:11:54;101007.08;;;13.94;46.15
26436;BME280;15351;52.408;16.826;2023-05-11T05:18:28;101005.80;;;14.12;46.50
26436;BME280;15351;52.408;16.826;2023-05-11T05:20:57;101007.90;;;14.18;46.29
26436;BME280;15351;52.408;16.826;2023-05-11T05:23:27;101004.56;;;14.23;46.12
26436;BME280;15351;52.408;16.826;2023-05-11T05:26:52;101008.69;;;14.29;46.47
26436;BME280;15351;52.408;16.826;2023-05-11T05:29:43;101005.84;;;14.34;46.48
26436;BME280;15351;52.408;16.826;2023-05-11T05:35:35;101012.00;;;14.39;46.40
26436;BME280;15351;52.408;16.826;2023-05-11T05:42:04;101019.60;;;14.43;46.07
26436;BME280;15351;52.408;16.826;2023-05-11T05:44:42;101021.36;;;14.43;45.78
26436;BME280;15351;52.408;16.826;2023-05-11T05:51:56;101018.84;;;14.43;45.99
26436;BME280;15351;52.408;16.826;2023-05-11T05:55:30;101025.14;;;14.48;46.23
26436;BME280;15351;52.408;16.826;2023-05-11T05:58:44;101024.23;;;14.49;46.11
26436;BME280;15351;52.408;16.826;2023-05-11T06:05:46;101029.54;;;14.62;46.35
26436;BME280;15351;52.408;16.826;2023-05-11T06:08:15;101035.63;;;14.70;46.71
26436;BME280;15351;52.408;16.826;2023-05-11T06:14:46;101037.27;;;14.85;46.38
26436;BME280;15351;52.408;16.826;2023-05-11T06:21:37;101029.51;;;14.98;46.36
26436;BME280;15351;52.408;16.826;2023-05-11T06:24:21;101035.42;;;15.08;46.21
26436;BME280;15351;52.408;16.826;2023-05-11T06:27:12;101035.30;;;15.15;46.41
26436;BME280;15351;52.408;16.826;2023-05-11T06:29:47;101036.08;;;15.21;46.77
26436;BME280;15351;52.408;16.826;2023-05-11T06:32:23;101039.27;;;15.27;46.87
26436;BME280;15351;52.408;16.826;2023-05-11T06:35:14;101036.10;;;15.32;46.82
26436;BME280;15351;52.408;16.826;2023-05-11T06:38:21;101041.58;;;15.36;46.52
26436;BME280;15351;52.408;16.826;2023-05-11T06:41:09;101042.04;;;15.41;46.51
26436;BME280;15351;52.408;16.826;2023-05-11T06:47:15;101043.55;;;15.59;46.33
26436;BME280;15351;52.408;16.826;2023-05-11T06:50:03;101048.00;;;15.66;46.23
26436;BME280;15351;52.408;16.826;2023-05-11T06:52:59;101047.92;;;15.75;46.28
26436;BME280;15351;52.408;16.826;2023-05-11T06:55:59;101051.05;;;15.81;46.17
26436;BME280;15351;52.408;16.826;2023-05-11T07:01:33;101043.48;;;16.00;46.50
26436;BME280;15351;52.408;16.826;2023-05-11T07:07:29;101041.59;;;16.30;46.19
26436;BME280;15351;52.408;16.826;2023-05-11T07:11:01;101039.64;;;16.48;46.09
26436;BME280;15351;52.408;16.826;2023-05-11T07:14:07;101039.19;;;16.70;46.05
26436;BME280;15351;52.408;16.826;2023-05-11T07:16:39;101039.92;;;16.93;46.31
26436;BME280;15351;52.408;16.826;2023-05-11T07:20:07;101042.75;;;17.12;45.73
26436;BME280;15351;52.408;16.826;2023-05-11T07:22:42;101038.73;;;17.31;45.25
26436;BME280;15351;52.408;16.826;2023-05-11T07:25:43;101047.53;;;17.48;44.75
26436;BME280;15351;52.408;16.826;2023-05-11T07:35:53;101047.42;;;18.03;44.54
26436;BME280;15351;52.408;16.826;2023-05-11T07:42:42;101052.29;;;18.42;44.00
26436;BME280;15351;52.408;16.826;2023-05-11T07:46:49;101051.91;;;18.60;43.82
26436;BME280;15351;52.408;16.826;2023-05-11T07:49:44;101047.27;;;18.74;43.23
26436;BME280;15351;52.408;16.826;2023-05-11T07:52:49;101047.69;;;18.91;43.86
26436;BME280;15351;52.408;16.826;2023-05-11T07:55:56;101045.44;;;19.06;42.81
26436;BME280;15351;52.408;16.826;2023-05-11T07:58:33;101048.46;;;19.20;43.28
26436;BME280;15351;52.408;16.826;2023-05-11T08:05:16;101049.62;;;19.60;43.56
26436;BME280;15351;52.408;16.826;2023-05-11T08:08:48;101049.89;;;19.86;43.13
26436;BME280;15351;52.408;16.826;2023-05-11T08:11:49;101044.90;;;20.02;42.35
26436;BME280;15351;52.408;16.826;2023-05-11T08:14:56;101045.00;;;20.08;41.41
26436;BME280;15351;52.408;16.826;2023-05-11T08:17:38;101043.77;;;20.19;41.55
26436;BME280;15351;52.408;16.826;2023-05-11T08:23:53;101042.10;;;20.52;41.36
26436;BME280;15351;52.408;16.826;2023-05-11T08:30:32;101039.92;;;20.89;40.68
26436;BME280;15351;52.408;16.826;2023-05-11T08:33:19;101040.83;;;21.08;40.70
26436;BME280;15351;52.408;16.826;2023-05-11T08:35:58;101038.45;;;21.26;40.85
26436;BME280;15351;52.408;16.826;2023-05-11T08:39:09;101037.74;;;21.47;41.05
26436;BME280;15351;52.408;16.826;2023-05-11T08:41:36;101042.35;;;21.66;40.46
26436;BME280;15351;52.408;16.826;2023-05-11T08:47:29;101039.20;;;21.88;39.29
26436;BME280;15351;52.408;16.826;2023-05-11T08:50:18;101039.65;;;21.91;39.09
26436;BME280;15351;52.408;16.826;2023-05-11T08:52:47;101043.83;;;21.91;39.25
26436;BME280;15351;52.408;16.826;2023-05-11T08:55:18;101045.95;;;21.98;38.79
26436;BME280;15351;52.408;16.826;2023-05-11T08:57:52;101041.25;;;22.07;38.30
26436;BME280;15351;52.408;16.826;2023-05-11T09:00:19;101043.57;;;22.15;38.53
26436;BME280;15351;52.408;16.826;2023-05-11T09:06:32;101044.02;;;22.49;38.39
26436;BME280;15351;52.408;16.826;2023-05-11T09:13:03;101046.60;;;22.55;38.11
26436;BME280;15351;52.408;16.826;2023-05-11T09:15:53;101044.12;;;22.70;38.10
26436;BME280;15351;52.408;16.826;2023-05-11T09:18:27;101038.38;;;22.79;37.63
26436;BME280;15351;52.408;16.826;2023-05-11T09:21:54;101036.74;;;22.85;37.77
26436;BME280;15351;52.408;16.826;2023-05-11T09:24:55;101038.17;;;22.99;37.02
26436;BME280;15351;52.408;16.826;2023-05-11T09:27:41;101036.28;;;23.05;36.12
26436;BME280;15351;52.408;16.826;2023-05-11T09:37:06;101031.89;;;23.45;36.19
26436;BME280;15351;52.408;16.826;2023-05-11T09:43:21;101030.55;;;23.60;34.86
26436;BME280;15351;52.408;16.826;2023-05-11T09:49:48;101038.59;;;23.51;34.04
26436;BME280;15351;52.408;16.826;2023-05-11T09:52:22;101039.52;;;23.57;34.68
26436;BME280;15351;52.408;16.826;2023-05-11T09:55:57;101035.45;;;23.66;34.26
26436;BME280;15351;52.408;16.826;2023-05-11T10:01:51;101023.05;;;23.79;33.78
26436;BME280;15351;52.408;16.826;2023-05-11T10:04:40;101027.22;;;23.90;33.82
26436;BME280;15351;52.408;16.826;2023-05-11T10:07:38;101023.52;;;24.05;33.60
26436;BME280;15351;52.408;16.826;2023-05-11T10:10:12;101017.86;;;24.17;34.11
26436;BME280;15351;52.408;16.826;2023-05-11T10:12:39;101020.54;;;24.31;33.99
26436;BME280;15351;52.408;16.826;2023-05-11T10:15:08;101017.55;;;24.39;33.88
26436;BME280;15351;52.408;16.826;2023-05-11T10:17:36;101020.05;;;24.46;33.72
26436;BME280;15351;52.408;16.826;2023-05-11T10:20:05;101013.58;;;24.58;33.91
26436;BME280;15351;52.408;16.826;2023-05-11T10:22:44;101007.69;;;24.68;33.58
26436;BME280;15351;52.408;16.826;2023-05-11T10:25:18;101011.61;;;24.77;33.76
26436;BME280;15351;52.408;16.826;2023-05-11T10:28:24;101010.41;;;24.88;33.63
26436;BME280;15351;52.408;16.826;2023-05-11T10:30:57;101003.80;;;24.97;33.61
26436;BME280;15351;52.408;16.826;2023-05-11T10:34:23;101003.30;;;25.12;33.88
26436;BME280;15351;52.408;16.826;2023-05-11T10:37:39;101004.67;;;25.22;33.11
26436;BME280;15351;52.408;16.826;2023-05-11T10:50:58;101000.62;;;25.42;32.27
26436;BME280;15351;52.408;16.826;2023-05-11T10:56:29;100995.65;;;25.32;31.06
26436;BME280;15351;52.408;16.826;2023-05-11T11:02:06;100992.37;;;25.30;32.04
26436;BME280;15351;52.408;16.826;2023-05-11T11:04:45;100996.65;;;25.38;31.46
26436;BME280;15351;52.408;16.826;2023-05-11T11:07:16;100992.88;;;25.37;31.22
26436;BME280;15351;52.408;16.826;2023-05-11T11:10:06;100991.89;;;25.42;31.90
26436;BME280;15351;52.408;16.826;2023-05-11T11:12:34;100992.64;;;25.52;32.05
26436;BME280;15351;52.408;16.826;2023-05-11T11:15:09;100989.07;;;25.64;32.46
26436;BME280;15351;52.408;16.826;2023-05-11T11:17:36;100990.54;;;25.70;31.86
26436;BME280;15351;52.408;16.826;2023-05-11T11:20:06;100995.39;;;25.68;31.10
26436;BME280;15351;52.408;16.826;2023-05-11T11:25:05;100987.08;;;25.67;30.94
26436;BME280;15351;52.408;16.826;2023-05-11T11:30:23;100986.86;;;25.67;30.92
26436;BME280;15351;52.408;16.826;2023-05-11T11:35:54;100981.61;;;25.78;31.74
26436;BME280;15351;52.408;16.826;2023-05-11T11:38:21;100980.17;;;25.88;31.73
26436;BME280;15351;52.408;16.826;2023-05-11T11:40:47;100978.92;;;25.90;31.22
26436;BME280;15351;52.408;16.826;2023-05-11T11:43:19;100975.02;;;25.93;31.08
26436;BME280;15351;52.408;16.826;2023-05-11T11:45:55;100980.40;;;25.94;30.97
26436;BME280;15351;52.408;16.826;2023-05-11T11:48:31;100972.02;;;25.92;30.61
26436;BME280;15351;52.408;16.826;2023-05-11T11:51:00;100971.39;;;25.94;31.06
26436;BME280;15351;52.408;16.826;2023-05-11T11:56:03;100971.25;;;25.98;30.91
26436;BME280;15351;52.408;16.826;2023-05-11T12:01:12;100973.41;;;25.97;30.83
26436;BME280;15351;52.408;16.826;2023-05-11T12:03:40;100972.17;;;25.96;30.78
26436;BME280;15351;52.408;16.826;2023-05-11T12:06:07;100967.90;;;25.88;30.04
26436;BME280;15351;52.408;16.826;2023-05-11T12:08:43;100968.68;;;25.80;29.94
26436;BME280;15351;52.408;16.826;2023-05-11T12:11:15;100964.79;;;25.78;30.52
26436;BME280;15351;52.408;16.826;2023-05-11T12:13:42;100965.30;;;25.84;30.75
26436;BME280;15351;52.408;16.826;2023-05-11T12:16:15;100967.70;;;25.91;30.87
26436;BME280;15351;52.408;16.826;2023-05-11T12:18:53;100973.77;;;25.96;31.27
26436;BME280;15351;52.408;16.826;2023-05-11T12:21:23;100965.07;;;25.99;30.49
26436;BME280;15351;52.408;16.826;2023-05-11T12:24:02;100960.38;;;25.95;30.35
26436;BME280;15351;52.408;16.826;2023-05-11T12:26:31;100966.98;;;25.85;30.48
26436;BME280;15351;52.408;16.826;2023-05-11T12:29:13;100962.90;;;25.79;30.78
26436;BME280;15351;52.408;16.826;2023-05-11T12:31:41;100968.88;;;25.78;30.85
26436;BME280;15351;52.408;16.826;2023-05-11T12:34:27;100963.58;;;25.79;30.99
26436;BME280;15351;52.408;16.826;2023-05-11T12:36:57;100961.96;;;25.82;31.01
26436;BME280;15351;52.408;16.826;2023-05-11T12:39:26;100960.59;;;25.83;30.99
26436;BME280;15351;52.408;16.826;2023-05-11T12:41:55;100961.42;;;25.82;30.67
26436;BME280;15351;52.408;16.826;2023-05-11T12:44:32;100959.70;;;25.78;30.52
26436;BME280;15351;52.408;16.826;2023-05-11T12:47:08;100957.85;;;25.61;30.07
26436;BME280;15351;52.408;16.826;2023-05-11T12:49:42;100958.91;;;25.36;29.75
26436;BME280;15351;52.408;16.826;2023-05-11T12:52:57;100966.33;;;25.15;30.00
26436;BME280;15351;52.408;16.826;2023-05-11T12:55:36;100960.61;;;25.02;30.24
26436;BME280;15351;52.408;16.826;2023-05-11T12:58:07;100957.02;;;25.05;30.90
26436;BME280;15351;52.408;16.826;2023-05-11T13:00:34;100961.48;;;25.08;30.86
26436;BME280;15351;52.408;16.826;2023-05-11T13:06:33;100949.92;;;25.03;30.31
26436;BME280;15351;52.408;16.826;2023-05-11T13:09:02;100953.70;;;24.97;30.23
26436;BME280;15351;52.408;16.826;2023-05-11T13:11:37;100947.39;;;24.88;30.21
26436;BME280;15351;52.408;16.826;2023-05-11T13:17:04;100947.85;;;24.83;30.32
26436;BME280;15351;52.408;16.826;2023-05-11T13:23:31;100938.41;;;24.68;30.63
26436;BME280;15351;52.408;16.826;2023-05-11T13:25:58;100936.20;;;24.70;30.76
26436;BME280;15351;52.408;16.826;2023-05-11T13:31:40;100926.31;;;24.79;31.08
26436;BME280;15351;52.408;16.826;2023-05-11T13:37:13;100922.26;;;24.81;30.43
26436;BME280;15351;52.408;16.826;2023-05-11T13:39:39;100917.31;;;24.79;30.94
26436;BME280;15351;52.408;16.826;2023-05-11T13:42:08;100923.48;;;24.83;31.34
26436;BME280;15351;52.408;16.826;2023-05-11T13:44:56;100915.11;;;24.84;31.06
26436;BME280;15351;52.408;16.826;2023-05-11T13:47:23;100920.41;;;24.83;31.00
26436;BME280;15351;52.408;16.826;2023-05-11T13:49:50;100921.89;;;24.78;30.86
26436;BME280;15351;52.408;16.826;2023-05-11T13:52:39;100919.27;;;24.58;30.12
26436;BME280;15351;52.408;16.826;2023-05-11T14:00:17;100920.25;;;24.26;30.33
26436;BME280;15351;52.408;16.826;2023-05-11T14:03:26;100918.79;;;24.18;30.54
26436;BME280;15351;52.408;16.826;2023-05-11T14:06:24;100914.06;;;24.10;30.21
26436;BME280;15351;52.408;16.826;2023-05-11T14:11:54;100920.54;;;23.92;30.49
26436;BME280;15351;52.408;16.826;2023-05-11T14:19:15;100915.44;;;23.83;30.44
26436;BME280;15351;52.408;16.826;2023-05-11T14:22:19;100909.24;;;23.74;30.18
26436;BME280;15351;52.408;16.826;2023-05-11T14:24:45;100908.84;;;23.73;30.47
26436;BME280;15351;52.408;16.826;2023-05-11T14:27:11;100910.24;;;23.74;30.62
26436;BME280;15351;52.408;16.826;2023-05-11T14:29:47;100909.67;;;23.70;30.53
26436;BME280;15351;52.408;16.826;2023-05-11T14:35:32;100909.98;;;23.59;30.36
26436;BME280;15351;52.408;16.826;2023-05-11T14:37:59;100910.98;;;23.50;30.20
26436;BME280;15351;52.408;16.826;2023-05-11T14:40:31;100904.95;;;23.39;30.13
26436;BME280;15351;52.408;16.826;2023-05-11T14:42:58;100904.59;;;23.27;30.28
26436;BME280;15351;52.408;16.826;2023-05-11T14:45:24;100908.95;;;23.17;30.37
26436;BME280;15351;52.408;16.826;2023-05-11T14:47:54;100911.67;;;23.16;30.52
26436;BME280;15351;52.408;16.826;2023-05-11T14:50:31;100908.08;;;23.13;30.44
26436;BME280;15351;52.408;16.826;2023-05-11T14:53:00;100912.47;;;23.10;30.39
26436;BME280;15351;52.408;16.826;2023-05-11T14:55:27;100910.20;;;23.04;30.33
26436;BME280;15351;52.408;16.826;2023-05-11T14:57:54;100905.09;;;23.01;30.72
26436;BME280;15351;52.408;16.826;2023-05-11T15:00:25;100904.89;;;23.00;30.82
26436;BME280;15351;52.408;16.826;2023-05-11T15:02:59;100901.60;;;22.99;30.84
26436;BME280;15351;52.408;16.826;2023-05-11T15:05:28;100905.59;;;22.95;30.92
26436;BME280;15351;52.408;16.826;2023-05-11T15:07:59;100905.30;;;22.86;31.14
26436;BME280;15351;52.408;16.826;2023-05-11T15:10:28;100910.05;;;22.76;31.38
26436;BME280;15351;52.408;16.826;2023-05-11T15:12:55;100907.28;;;22.68;31.54
26436;BME280;15351;52.408;16.826;2023-05-11T15:15:22;100910.69;;;22.59;31.33
26436;BME280;15351;52.408;16.826;2023-05-11T15:17:51;100912.64;;;22.55;31.45
26436;BME280;15351;52.408;16.826;2023-05-11T15:20:18;100908.70;;;22.52;31.60
26436;BME280;15351;52.408;16.826;2023-05-11T15:22:46;100910.56;;;22.50;31.42
26436;BME280;15351;52.408;16.826;2023-05-11T15:25:15;100914.61;;;22.44;31.49
26436;BME280;15351;52.408;16.826;2023-05-11T15:27:41;100913.14;;;22.40;31.80
26436;BME280;15351;52.408;16.826;2023-05-11T15:30:08;100911.13;;;22.37;31.77
26436;BME280;15351;52.408;16.826;2023-05-11T15:32:35;100912.61;;;22.36;31.86
26436;BME280;15351;52.408;16.826;2023-05-11T15:35:07;100906.21;;;22.34;31.90
26436;BME280;15351;52.408;16.826;2023-05-11T15:43:31;100907.61;;;22.28;31.93
26436;BME280;15351;52.408;16.826;2023-05-11T15:45:59;100912.09;;;22.24;31.71
26436;BME280;15351;52.408;16.826;2023-05-11T15:48:28;100912.58;;;22.22;32.01
26436;BME280;15351;52.408;16.826;2023-05-11T15:50:55;100913.58;;;22.20;31.99
26436;BME280;15351;52.408;16.826;2023-05-11T15:53:22;100915.40;;;22.19;31.89
26436;BME280;15351;52.408;16.826;2023-05-11T15:55:50;100918.73;;;22.18;32.01
26436;BME280;15351;52.408;16.826;2023-05-11T15:58:29;100924.78;;;22.15;32.01
26436;BME280;15351;52.408;16.826;2023-05-11T16:01:09;100922.83;;;22.10;31.77
26436;BME280;15351;52.408;16.826;2023-05-11T16:03:37;100920.10;;;22.08;31.91
26436;BME280;15351;52.408;16.826;2023-05-11T16:06:04;100917.92;;;22.07;32.20
26436;BME280;15351;52.408;16.826;2023-05-11T16:08:33;100927.55;;;22.04;31.92
26436;BME280;15351;52.408;16.826;2023-05-11T16:11:01;100921.17;;;21.99;31.72
26436;BME280;15351;52.408;16.826;2023-05-11T16:13:27;100918.99;;;21.95;31.85
26436;BME280;15351;52.408;16.826;2023-05-11T16:15:58;100925.26;;;21.91;31.69
26436;BME280;15351;52.408;16.826;2023-05-11T16:18:24;100922.84;;;21.85;31.57
26436;BME280;15351;52.408;16.826;2023-05-11T16:20:54;100922.70;;;21.79;31.45
26436;BME280;15351;52.408;16.826;2023-05-11T16:23:21;100923.83;;;21.74;31.76
26436;BME280;15351;52.408;16.826;2023-05-11T16:25:47;100925.20;;;21.73;31.89
26436;BME280;15351;52.408;16.826;2023-05-11T16:28:13;100923.27;;;21.70;32.26
26436;BME280;15351;52.408;16.826;2023-05-11T16:30:40;100922.33;;;21.68;32.29
26436;BME280;15351;52.408;16.826;2023-05-11T16:33:16;100923.92;;;21.64;31.93
26436;BME280;15351;52.408;16.826;2023-05-11T16:35:54;100923.42;;;21.60;32.16
26436;BME280;15351;52.408;16.826;2023-05-11T16:38:33;100922.05;;;21.58;32.19
26436;BME280;15351;52.408;16.826;2023-05-11T16:41:19;100924.97;;;21.57;32.46
26436;BME280;15351;52.408;16.826;2023-05-11T16:44:00;100923.19;;;21.52;32.19
26436;BME280;15351;52.408;16.826;2023-05-11T16:46:43;100924.27;;;21.49;32.49
26436;BME280;15351;52.408;16.826;2023-05-11T16:49:09;100919.85;;;21.48;32.71
26436;BME280;15351;52.408;16.826;2023-05-11T16:51:38;100921.88;;;21.47;32.50
26436;BME280;15351;52.408;16.826;2023-05-11T17:00:51;100921.91;;;21.42;32.46
26436;BME280;15351;52.408;16.826;2023-05-11T17:03:20;100923.55;;;21.40;32.54
26436;BME280;15351;52.408;16.826;2023-05-11T17:06:10;100925.78;;;21.37;32.57
26436;BME280;15351;52.408;16.826;2023-05-11T17:08:39;100923.73;;;21.34;32.43
26436;BME280;15351;52.408;16.826;2023-05-11T17:11:46;100927.48;;;21.31;32.50
26436;BME280;15351;52.408;16.826;2023-05-11T17:14:39;100932.55;;;21.26;32.65
26436;BME280;15351;52.408;16.826;2023-05-11T17:17:48;100935.11;;;21.20;32.88
26436;BME280;15351;52.408;16.826;2023-05-11T17:20:18;100936.92;;;21.17;32.79
26436;BME280;15351;52.408;16.826;2023-05-11T17:22:46;100937.83;;;21.11;33.00
26436;BME280;15351;52.408;16.826;2023-05-11T17:25:15;100939.19;;;21.05;33.09
26436;BME280;15351;52.408;16.826;2023-05-11T17:27:44;100937.90;;;21.00;33.21